createdAt,value
2019-02-23T00:01:13.577Z,81.05
2019-02-23T00:03:44.180Z,81.08
2019-02-23T00:06:13.910Z,81.14
2019-02-23T00:08:43.867Z,81.17
2019-02-23T00:11:13.113Z,81.14
2019-02-23T00:13:42.589Z,80.97
2019-02-23T00:16:14.875Z,81.13
2019-02-23T00:18:46.123Z,81.27
2019-02-23T00:21:17.788Z,81.02
2019-02-23T00:23:50.162Z,81.26
2019-02-23T00:26:22.125Z,81.25
2019-02-23T00:28:52.213Z,81.10
2019-02-23T00:31:23.585Z,81.42
2019-02-23T00:33:54.087Z,81.34
2019-02-23T00:36:24.286Z,81.16
2019-02-23T00:38:56.400Z,81.28
2019-02-23T00:41:31.044Z,81.04
2019-02-23T00:44:02.040Z,81.30
2019-02-23T00:46:35.665Z,81.12
2019-02-23T00:49:06.730Z,81.23
2019-02-23T00:51:36.075Z,81.08
2019-02-23T00:54:09.219Z,81.28
2019-02-23T00:56:43.120Z,81.19
2019-02-23T00:59:15.421Z,81.18
2019-02-23T01:01:51.845Z,81.14
2019-02-23T01:04:25.062Z,81.04
2019-02-23T01:06:55.558Z,81.10
2019-02-23T01:09:28.317Z,80.90
2019-02-23T01:11:58.286Z,81.23
2019-02-23T01:14:27.764Z,80.95
2019-02-23T01:16:57.436Z,81.04
2019-02-23T01:19:27.468Z,80.95
2019-02-23T01:21:58.139Z,80.70
2019-02-23T01:24:27.767Z,80.93
2019-02-23T01:26:57.383Z,80.76
2019-02-23T01:29:30.047Z,80.73
2019-02-23T01:31:59.774Z,80.72
2019-02-23T01:34:32.253Z,80.75
2019-02-23T01:37:07.123Z,80.81
2019-02-23T01:39:39.211Z,80.97
2019-02-23T01:42:09.441Z,80.71
2019-02-23T01:44:49.479Z,80.78
2019-02-23T01:47:20.273Z,80.78
2019-02-23T01:49:58.611Z,80.62
2019-02-23T01:52:24.186Z,80.54
2019-02-23T01:54:55.456Z,80.64
2019-02-23T02:00:13.404Z,80.70
2019-02-23T02:02:44.940Z,80.85
2019-02-23T02:05:15.675Z,80.88
2019-02-23T02:07:45.343Z,81.09
2019-02-23T02:10:16.226Z,81.17
2019-02-23T02:12:48.377Z,81.05
2019-02-23T02:15:23.357Z,81.18
2019-02-23T02:17:56.289Z,81.11
2019-02-23T02:20:26.513Z,81.32
2019-02-23T02:22:56.575Z,81.43
2019-02-23T02:25:27.317Z,81.42
2019-02-23T02:27:56.303Z,81.59
2019-02-23T02:30:27.063Z,81.71
2019-02-23T02:32:57.243Z,81.36
2019-02-23T02:35:27.819Z,81.60
2019-02-23T02:38:01.294Z,81.43
2019-02-23T02:40:32.753Z,81.49
2019-02-23T02:43:04.277Z,81.44
2019-02-23T02:45:47.396Z,81.44
2019-02-23T02:48:18.932Z,81.54
2019-02-23T02:50:50.960Z,81.48
2019-02-23T02:53:23.605Z,81.57
2019-02-23T02:55:54.259Z,81.65
2019-02-23T02:58:24.282Z,81.64
2019-02-23T03:00:54.364Z,81.69
2019-02-23T03:03:28.534Z,81.72
2019-02-23T03:06:01.882Z,81.72
2019-02-23T03:08:33.631Z,81.85
2019-02-23T03:11:03.237Z,81.96
2019-02-23T03:13:37.003Z,82.25
2019-02-23T03:16:13.921Z,82.12
2019-02-23T03:18:48.074Z,82.18
2019-02-23T03:21:19.156Z,82.25
2019-02-23T03:23:49.442Z,82.48
2019-02-23T03:26:21.153Z,82.65
2019-02-23T03:28:50.780Z,82.37
2019-02-23T03:31:21.825Z,82.62
2019-02-23T03:33:54.171Z,82.61
2019-02-23T03:36:24.471Z,82.65
2019-02-23T03:38:56.413Z,82.83
2019-02-23T03:41:26.846Z,82.76
2019-02-23T03:43:57.574Z,82.79
2019-02-23T03:46:30.703Z,82.72
2019-02-23T03:49:03.651Z,82.74
2019-02-23T03:51:44.122Z,82.99
2019-02-23T03:54:16.100Z,83.03
2019-02-23T03:56:46.863Z,82.93
2019-02-23T03:59:17.370Z,83.12
2019-02-23T04:01:47.408Z,83.25
2019-02-23T04:04:17.728Z,83.26
2019-02-23T04:06:49.136Z,83.33
2019-02-23T04:09:23.674Z,83.11
2019-02-23T04:11:55.715Z,83.43
2019-02-23T04:14:25.606Z,83.59
2019-02-23T04:16:56.052Z,83.66
2019-02-23T04:19:26.559Z,83.66
2019-02-23T04:21:57.289Z,83.87
2019-02-23T04:24:28.658Z,83.88
2019-02-23T04:27:03.319Z,83.89
2019-02-23T04:29:37.071Z,84.09
2019-02-23T04:32:10.053Z,83.92
2019-02-23T04:34:40.363Z,84.14
2019-02-23T04:37:17.684Z,84.11
2019-02-23T04:39:55.653Z,84.37
2019-02-23T04:42:28.570Z,84.28
2019-02-23T04:45:00.779Z,84.21
2019-02-23T04:47:40.458Z,84.15
2019-02-23T04:50:11.807Z,84.08
2019-02-23T04:52:44.362Z,84.27
2019-02-23T04:55:14.104Z,84.23
2019-02-23T04:57:45.924Z,84.04
2019-02-23T05:00:22.891Z,84.21
2019-02-23T05:02:52.810Z,84.27
2019-02-23T05:05:23.500Z,84.13
2019-02-23T05:07:53.739Z,84.32
2019-02-23T05:10:23.670Z,84.33
2019-02-23T05:12:58.357Z,84.26
2019-02-23T05:15:34.000Z,84.20
2019-02-23T05:18:05.096Z,84.02
2019-02-23T05:20:35.700Z,83.94
2019-02-23T05:23:12.325Z,83.94
2019-02-23T05:25:43.683Z,84.21
2019-02-23T05:28:15.218Z,84.11
2019-02-23T05:30:49.795Z,84.19
2019-02-23T05:33:21.374Z,84.27
2019-02-23T05:35:56.973Z,84.32
2019-02-23T05:38:27.371Z,84.30
2019-02-23T05:41:02.091Z,84.27
2019-02-23T05:43:32.472Z,84.39
2019-02-23T05:46:05.108Z,84.17
2019-02-23T05:48:35.092Z,84.26
2019-02-23T05:51:04.220Z,84.22
2019-02-23T05:53:38.597Z,84.34
2019-02-23T05:56:16.214Z,84.50
2019-02-23T05:58:44.573Z,84.48
2019-02-23T06:01:17.971Z,84.65
2019-02-23T06:03:49.160Z,84.64
2019-02-23T06:06:26.060Z,84.54
2019-02-23T06:09:02.491Z,84.48
2019-02-23T06:11:32.199Z,84.40
2019-02-23T06:14:03.217Z,84.69
2019-02-23T06:16:37.527Z,84.59
2019-02-23T06:19:13.071Z,84.57
2019-02-23T06:21:53.060Z,84.48
2019-02-23T06:24:12.070Z,84.58
2019-02-23T06:29:28.380Z,84.50
2019-02-23T06:31:58.142Z,84.54
2019-02-23T06:34:33.573Z,84.63
2019-02-23T06:37:05.398Z,84.69
2019-02-23T06:39:42.510Z,84.64
2019-02-23T06:42:13.879Z,84.73
2019-02-23T06:44:44.139Z,84.63
2019-02-23T06:47:14.845Z,84.64
2019-02-23T06:49:46.442Z,84.34
2019-02-23T06:52:19.359Z,84.59
2019-02-23T06:54:51.280Z,84.45
2019-02-23T06:57:22.960Z,84.42
2019-02-23T06:59:56.918Z,84.67
2019-02-23T07:02:28.682Z,84.57
2019-02-23T07:05:00.505Z,84.48
2019-02-23T07:07:30.560Z,84.39
2019-02-23T07:10:00.658Z,84.36
2019-02-23T07:12:30.882Z,84.31
2019-02-23T07:15:02.258Z,84.04
2019-02-23T07:17:32.737Z,84.21
2019-02-23T07:20:06.955Z,84.09
2019-02-23T07:22:37.834Z,84.13
2019-02-23T07:25:08.841Z,83.92
2019-02-23T07:27:46.268Z,84.04
2019-02-23T07:30:15.871Z,83.77
2019-02-23T07:32:48.007Z,83.56
2019-02-23T07:35:21.924Z,83.53
2019-02-23T07:37:55.258Z,83.57
2019-02-23T07:40:25.247Z,83.42
2019-02-23T07:42:55.834Z,83.42
2019-02-23T07:45:26.236Z,83.21
2019-02-23T07:47:57.042Z,83.00
2019-02-23T07:50:29.645Z,83.02
2019-02-23T07:53:01.170Z,82.88
2019-02-23T07:55:31.467Z,82.72
2019-02-23T07:58:04.641Z,82.67
2019-02-23T08:00:36.030Z,82.40
2019-02-23T08:05:43.131Z,82.15
2019-02-23T08:08:13.638Z,81.89
2019-02-23T08:10:43.697Z,81.74
2019-02-23T08:13:16.036Z,81.48
2019-02-23T08:15:48.211Z,81.57
2019-02-23T08:18:20.555Z,81.38
2019-02-23T08:20:54.023Z,81.04
2019-02-23T08:23:27.533Z,80.98
2019-02-23T08:26:00.903Z,80.75
2019-02-23T08:28:31.982Z,80.83
2019-02-23T08:31:01.513Z,80.63
2019-02-23T08:33:32.800Z,80.54
2019-02-23T08:36:04.676Z,80.49
2019-02-23T08:38:39.204Z,80.09
2019-02-23T08:41:09.887Z,79.98
2019-02-23T08:43:41.589Z,79.69
2019-02-23T08:46:10.777Z,79.47
2019-02-23T08:48:41.305Z,79.49
2019-02-23T08:51:16.008Z,79.28
2019-02-23T08:53:50.506Z,79.08
2019-02-23T08:56:22.660Z,79.07
2019-02-23T08:58:52.953Z,78.87
2019-02-23T09:01:25.699Z,78.82
2019-02-23T09:03:59.444Z,78.62
2019-02-23T09:06:34.139Z,78.86
2019-02-23T09:09:08.114Z,78.79
2019-02-23T09:11:36.094Z,78.73
2019-02-23T09:14:10.592Z,78.48
2019-02-23T09:16:43.587Z,78.35
2019-02-23T09:19:19.545Z,78.36
2019-02-23T09:21:50.510Z,78.08
2019-02-23T09:24:20.634Z,78.05
2019-02-23T09:26:56.076Z,77.88
2019-02-23T09:29:27.671Z,77.81
2019-02-23T09:31:56.903Z,77.48
2019-02-23T09:34:26.018Z,77.46
2019-02-23T09:37:07.006Z,77.40
2019-02-23T09:39:44.997Z,77.51
2019-02-23T09:42:16.700Z,77.24
2019-02-23T09:44:50.440Z,77.06
2019-02-23T09:47:26.013Z,77.06
2019-02-23T09:49:56.750Z,76.89
2019-02-23T09:52:30.884Z,76.89
2019-02-23T09:55:02.204Z,76.74
2019-02-23T09:57:31.504Z,76.57
2019-02-23T10:00:02.648Z,76.78
2019-02-23T10:02:35.057Z,76.59
2019-02-23T10:05:07.003Z,76.48
2019-02-23T10:07:39.025Z,76.54
2019-02-23T10:10:13.729Z,76.43
2019-02-23T10:12:46.567Z,76.41
2019-02-23T10:15:19.856Z,76.22
2019-02-23T10:17:49.443Z,76.32
2019-02-23T10:20:23.587Z,76.16
2019-02-23T10:22:56.823Z,76.27
2019-02-23T10:25:26.186Z,76.11
2019-02-23T10:27:59.280Z,76.04
2019-02-23T10:30:36.335Z,76.01
2019-02-23T10:33:06.230Z,75.71
2019-02-23T10:35:36.665Z,75.52
2019-02-23T10:38:12.812Z,75.56
2019-02-23T10:40:48.876Z,75.21
2019-02-23T10:43:20.197Z,74.74
2019-02-23T10:45:51.374Z,74.79
2019-02-23T10:48:24.258Z,74.69
2019-02-23T10:50:55.993Z,74.80
2019-02-23T10:53:33.032Z,74.71
2019-02-23T10:56:05.027Z,74.46
2019-02-23T10:58:36.551Z,74.12
2019-02-23T11:01:09.059Z,74.12
2019-02-23T11:03:38.185Z,73.82
2019-02-23T11:06:10.202Z,73.51
2019-02-23T11:11:27.722Z,73.14
2019-02-23T11:13:58.214Z,73.03
2019-02-23T11:16:28.930Z,72.69
2019-02-23T11:19:06.493Z,72.79
2019-02-23T11:21:40.545Z,72.69
2019-02-23T11:24:10.072Z,72.76
2019-02-23T11:26:41.316Z,72.64
2019-02-23T11:29:13.161Z,72.35
2019-02-23T11:31:45.379Z,72.42
2019-02-23T11:34:16.864Z,72.67
2019-02-23T11:36:52.030Z,72.28
2019-02-23T11:39:26.654Z,72.28
2019-02-23T11:41:57.004Z,71.93
2019-02-23T11:47:25.465Z,71.65
2019-02-23T11:49:55.389Z,71.57
2019-02-23T11:52:28.724Z,71.50
2019-02-23T11:54:59.923Z,71.77
2019-02-23T11:57:30.675Z,71.34
2019-02-23T12:00:01.824Z,71.57
2019-02-23T12:02:51.740Z,71.33
2019-02-23T12:05:13.655Z,71.29
2019-02-23T12:07:45.327Z,71.11
2019-02-23T12:10:19.065Z,70.89
2019-02-23T12:12:49.823Z,71.23
2019-02-23T12:15:23.475Z,71.04
2019-02-23T12:17:55.322Z,70.91
2019-02-23T12:20:26.955Z,71.30
2019-02-23T12:22:57.589Z,71.22
2019-02-23T12:25:27.229Z,70.71
2019-02-23T12:27:56.339Z,70.54
2019-02-23T12:30:29.841Z,70.49
2019-02-23T12:33:00.076Z,70.29
2019-02-23T12:35:30.915Z,70.53
2019-02-23T12:38:01.548Z,70.60
2019-02-23T12:40:31.984Z,70.27
2019-02-23T12:43:08.588Z,70.41
2019-02-23T12:45:44.476Z,70.56
2019-02-23T12:48:14.580Z,70.20
2019-02-23T12:50:47.268Z,70.43
2019-02-23T12:53:19.167Z,70.33
2019-02-23T12:55:50.266Z,70.42
2019-02-23T12:58:26.045Z,70.22
2019-02-23T13:00:58.633Z,69.94
2019-02-23T13:03:30.601Z,70.22
2019-02-23T13:06:01.523Z,70.21
2019-02-23T13:10:45.495Z,69.99
2019-02-23T13:13:26.650Z,69.76
2019-02-23T13:16:04.169Z,70.08
2019-02-23T13:19:54.252Z,69.34
2019-02-23T13:24:38.937Z,69.38
2019-02-23T13:27:39.474Z,69.76
2019-02-23T13:30:26.943Z,69.58
2019-02-23T13:33:18.132Z,70.14
2019-02-23T13:35:58.572Z,69.89
2019-02-23T13:38:53.073Z,70.11
2019-02-23T13:41:56.521Z,70.17
2019-02-23T13:45:10.058Z,70.26
2019-02-23T13:48:22.582Z,69.88
2019-02-23T13:51:11.843Z,69.75
2019-02-23T13:54:23.126Z,69.94
2019-02-23T13:57:03.546Z,69.82
2019-02-23T13:59:57.670Z,70.00
2019-02-23T14:06:55.057Z,69.73
2019-02-23T14:09:40.710Z,69.84
2019-02-23T14:12:25.366Z,69.61
2019-02-23T14:15:11.993Z,69.51
2019-02-23T14:17:51.002Z,69.53
2019-02-23T14:20:42.361Z,69.61
2019-02-23T14:23:25.877Z,69.58
2019-02-23T14:26:10.497Z,69.58
2019-02-23T14:30:06.823Z,69.16
2019-02-23T14:34:52.574Z,69.29
2019-02-23T14:39:40.584Z,68.63
2019-02-23T14:42:28.861Z,68.52
2019-02-23T14:46:10.499Z,69.20
2019-02-23T14:50:13.671Z,69.39
2019-02-23T14:52:54.483Z,69.65
2019-02-23T14:55:39.899Z,69.40
2019-02-23T14:58:23.635Z,69.70
2019-02-23T15:02:13.128Z,69.75
2019-02-23T15:04:59.668Z,70.20
2019-02-23T15:07:54.005Z,69.83
2019-02-23T15:10:36.944Z,70.15
2019-02-23T15:14:18.342Z,69.96
2019-02-23T15:17:09.161Z,69.84
2019-02-23T15:20:22.869Z,69.94
2019-02-23T15:23:07.360Z,69.72
2019-02-23T15:25:56.014Z,69.64
2019-02-23T15:28:39.652Z,69.57
2019-02-23T15:31:26.910Z,69.87
2019-02-23T15:37:22.891Z,69.71
2019-02-23T15:40:03.000Z,70.06
2019-02-23T15:42:47.373Z,69.99
2019-02-23T15:45:34.852Z,69.82
2019-02-23T15:48:30.821Z,69.80
2019-02-23T15:51:09.406Z,69.94
2019-02-23T15:53:38.676Z,69.92
2019-02-23T15:59:19.155Z,69.67
2019-02-23T16:01:50.701Z,69.96
2019-02-23T16:04:26.913Z,69.76
2019-02-23T16:07:04.387Z,70.19
2019-02-23T16:09:37.212Z,70.02
2019-02-23T16:12:07.449Z,70.40
2019-02-23T16:14:41.185Z,70.65
2019-02-23T16:17:16.961Z,70.44
2019-02-23T16:19:46.803Z,70.67
2019-02-23T16:22:18.686Z,70.48
2019-02-23T16:24:46.859Z,70.80
2019-02-23T16:29:51.252Z,71.19
2019-02-23T16:32:25.309Z,71.34
2019-02-23T16:34:57.688Z,71.57
2019-02-23T16:37:30.804Z,71.88
2019-02-23T16:40:01.580Z,72.18
2019-02-23T16:42:31.045Z,72.29
2019-02-23T16:45:02.251Z,72.60
2019-02-23T16:47:36.766Z,72.82
2019-02-23T16:50:06.675Z,72.52
2019-02-23T16:52:41.826Z,73.33
2019-02-23T16:55:11.663Z,73.51
2019-02-23T16:57:41.494Z,73.52
2019-02-23T17:00:12.032Z,73.86
2019-02-23T17:02:50.203Z,74.09
2019-02-23T17:05:21.170Z,74.49
2019-02-23T17:07:53.763Z,74.58
2019-02-23T17:10:24.708Z,74.84
2019-02-23T17:13:00.329Z,74.92
2019-02-23T17:15:31.789Z,75.12
2019-02-23T17:18:05.155Z,75.32
2019-02-23T17:20:39.311Z,75.37
2019-02-23T17:23:14.507Z,75.75
2019-02-23T17:25:49.210Z,75.91
2019-02-23T17:28:19.639Z,76.22
2019-02-23T17:30:51.106Z,76.18
2019-02-23T17:33:27.993Z,76.34
2019-02-23T17:35:56.869Z,76.60
2019-02-23T17:38:34.646Z,76.52
2019-02-23T17:41:13.515Z,76.81
2019-02-23T17:43:42.805Z,77.09
2019-02-23T17:46:27.800Z,77.07
2019-02-23T17:49:03.584Z,77.05
2019-02-23T17:51:35.131Z,77.25
2019-02-23T17:54:06.458Z,77.09
2019-02-23T17:56:36.009Z,77.33
2019-02-23T17:59:07.511Z,77.47
2019-02-23T18:01:37.912Z,77.87
2019-02-23T18:04:07.445Z,77.71
2019-02-23T18:06:36.598Z,77.93
2019-02-23T18:09:06.225Z,77.99
2019-02-23T18:11:42.171Z,78.21
2019-02-23T18:14:15.779Z,78.34
2019-02-23T18:16:47.178Z,78.72
2019-02-23T18:19:19.360Z,78.75
2019-02-23T18:21:55.143Z,78.66
2019-02-23T18:24:26.031Z,78.84
2019-02-23T18:26:55.693Z,79.37
2019-02-23T18:29:25.960Z,79.32
2019-02-23T18:31:55.368Z,79.34
2019-02-23T18:34:43.121Z,79.51
2019-02-23T18:37:14.633Z,79.55
2019-02-23T18:39:44.697Z,79.67
2019-02-23T18:42:18.232Z,79.81
2019-02-23T18:44:51.277Z,79.74
2019-02-23T18:47:22.602Z,79.77
2019-02-23T18:49:53.067Z,80.02
2019-02-23T18:52:27.246Z,79.72
2019-02-23T18:54:58.225Z,80.00
2019-02-23T18:57:29.716Z,80.09
2019-02-23T19:00:01.215Z,79.96
2019-02-23T19:02:31.800Z,79.95
2019-02-23T19:05:03.278Z,79.98
2019-02-23T19:07:37.629Z,80.23
2019-02-23T19:10:15.159Z,80.25
2019-02-23T19:12:45.075Z,80.26
2019-02-23T19:15:20.347Z,79.97
2019-02-23T19:17:54.881Z,80.42
2019-02-23T19:20:24.480Z,80.29
2019-02-23T19:22:55.513Z,80.47
2019-02-23T19:25:26.349Z,80.39
2019-02-23T19:27:57.375Z,80.41
2019-02-23T19:30:29.487Z,80.15
2019-02-23T19:33:02.911Z,80.69
2019-02-23T19:35:35.053Z,80.59
2019-02-23T19:38:09.038Z,80.74
2019-02-23T19:40:40.879Z,80.66
2019-02-23T19:43:10.660Z,80.46
2019-02-23T19:45:43.113Z,81.02
2019-02-23T19:48:15.737Z,80.74
2019-02-23T19:50:51.586Z,80.98
2019-02-23T19:53:20.941Z,81.17
2019-02-23T19:55:51.322Z,81.21
2019-02-23T19:58:21.444Z,81.49
2019-02-23T20:00:51.627Z,81.20
2019-02-23T20:03:27.608Z,81.42
2019-02-23T20:06:05.669Z,81.29
2019-02-23T20:08:36.404Z,81.39
2019-02-23T20:11:10.462Z,81.54
2019-02-23T20:13:47.293Z,81.55
2019-02-23T20:16:20.100Z,81.35
2019-02-23T20:18:52.188Z,81.17
2019-02-23T20:21:24.000Z,81.24
2019-02-23T20:26:55.481Z,81.41
2019-02-23T20:32:02.883Z,81.52
2019-02-23T20:34:31.929Z,81.40
2019-02-23T20:37:02.062Z,81.37
2019-02-23T20:39:34.244Z,81.38
2019-02-23T20:42:04.790Z,81.46
2019-02-23T20:44:38.323Z,81.27
2019-02-23T20:47:10.170Z,81.20
2019-02-23T20:49:40.060Z,80.88
2019-02-23T20:52:12.166Z,80.48
2019-02-23T20:54:43.941Z,80.37
2019-02-23T20:57:25.610Z,80.36
2019-02-23T20:59:58.496Z,80.40
2019-02-23T21:02:32.585Z,80.33
2019-02-23T21:05:05.172Z,79.92
2019-02-23T21:07:42.683Z,79.96
2019-02-23T21:10:13.548Z,79.98
2019-02-23T21:12:51.889Z,79.57
2019-02-23T21:15:23.278Z,79.96
2019-02-23T21:17:56.260Z,79.52
2019-02-23T21:20:26.281Z,79.51
2019-02-23T21:22:57.545Z,79.53
2019-02-23T21:25:28.029Z,79.39
2019-02-23T21:27:59.961Z,79.05
2019-02-23T21:30:31.147Z,79.37
2019-02-23T21:33:00.456Z,79.08
2019-02-23T21:35:31.101Z,79.00
2019-02-23T21:38:02.381Z,78.86
2019-02-23T21:40:36.578Z,78.88
2019-02-23T21:43:12.503Z,78.72
2019-02-23T21:45:43.739Z,78.59
2019-02-23T21:48:14.807Z,78.75
2019-02-23T21:50:47.847Z,78.42
2019-02-23T21:53:21.777Z,78.47
2019-02-23T21:55:53.431Z,78.46
2019-02-23T21:58:26.624Z,78.28
2019-02-23T22:00:56.955Z,78.24
2019-02-23T22:03:28.924Z,78.26
2019-02-23T22:06:00.984Z,78.12
2019-02-23T22:08:32.075Z,78.28
2019-02-23T22:13:42.842Z,78.20
2019-02-23T22:16:15.246Z,77.82
2019-02-23T22:18:47.605Z,78.01
2019-02-23T22:21:20.123Z,77.85
2019-02-23T22:23:52.535Z,77.87
2019-02-23T22:26:23.280Z,77.50
2019-02-23T22:28:53.375Z,77.62
2019-02-23T22:31:24.046Z,77.50
2019-02-23T22:33:55.808Z,77.50
2019-02-23T22:36:25.867Z,77.48
2019-02-23T22:38:55.330Z,77.69
2019-02-23T22:41:25.020Z,77.37
2019-02-23T22:43:57.460Z,77.55
2019-02-23T22:46:30.354Z,77.50
2019-02-23T22:48:59.989Z,77.64
2019-02-23T22:51:33.602Z,77.48
2019-02-23T22:54:07.675Z,77.43
2019-02-23T22:56:43.657Z,77.38
2019-02-23T22:59:14.899Z,77.44
2019-02-23T23:01:56.498Z,77.67
2019-02-23T23:04:29.008Z,77.72
2019-02-23T23:07:05.659Z,77.87
2019-02-23T23:09:35.969Z,77.76
2019-02-23T23:14:41.256Z,78.10
2019-02-23T23:17:12.522Z,78.17
2019-02-23T23:19:54.605Z,78.02
2019-02-23T23:22:26.565Z,77.99
2019-02-23T23:25:00.638Z,77.75
2019-02-23T23:27:37.453Z,77.79
2019-02-23T23:32:43.405Z,77.90
2019-02-23T23:35:16.417Z,77.72
2019-02-23T23:37:52.031Z,77.64
2019-02-23T23:40:32.366Z,77.86
2019-02-23T23:43:10.914Z,77.87
2019-02-23T23:45:44.887Z,77.90
2019-02-23T23:48:16.291Z,78.07
2019-02-23T23:50:52.781Z,78.06
2019-02-23T23:53:24.744Z,77.85
2019-02-23T23:55:54.422Z,77.86
2019-02-23T23:58:29.399Z,77.74
